Time;durP1;ratioP1;P1;durP2;ratioP2;P2;SDS_P1;SDS_P2;PMS_P1;PMS_P2;Temp;Humidity;BMP_temperature;BMP_pressure;BME280_temperature;BME280_humidity;BME280_pressure;Samples;Min_cycle;Max_cycle;Signal;HPM_P1;HPM_P2
2020/12/14 00:00:25;;;;;;;7.82;6.90;;;;;;;14.41;55.05;100537.16;5007899;27;127980;-58
2020/12/14 00:02:51;;;;;;;9.48;7.32;;;;;;;14.38;54.99;100544.00;5006192;27;98543;-57
2020/12/14 00:05:17;;;;;;;8.50;7.28;;;;;;;14.38;54.74;100552.13;5019210;27;128312;-58
2020/12/14 00:07:44;;;;;;;7.95;7.15;;;;;;;14.37;54.70;100550.50;5019325;27;97844;-60
2020/12/14 00:10:10;;;;;;;9.00;7.15;;;;;;;14.37;54.62;100545.06;5004227;27;98360;-57
2020/12/14 00:12:36;;;;;;;8.65;7.20;;;;;;;14.39;54.80;100545.59;5004824;27;127732;-58
2020/12/14 00:15:04;;;;;;;8.95;7.65;;;;;;;14.38;54.55;100549.41;5010211;27;98362;-60
2020/12/14 00:17:30;;;;;;;8.80;7.15;;;;;;;14.40;54.46;100540.97;5025328;27;97840;-57
2020/12/14 00:19:56;;;;;;;8.07;7.15;;;;;;;14.41;54.74;100542.59;5024269;27;129000;-58
2020/12/14 00:22:22;;;;;;;8.27;7.47;;;;;;;14.40;54.30;100546.41;5024748;27;128452;-57
2020/12/14 00:24:48;;;;;;;9.65;7.65;;;;;;;14.39;54.38;100542.09;5023595;27;127372;-59
2020/12/14 00:27:15;;;;;;;8.70;7.30;;;;;;;14.40;54.58;100549.13;5025454;27;111135;-57
2020/12/14 00:29:41;;;;;;;9.23;6.75;;;;;;;14.40;54.70;100549.91;5012264;27;99081;-57
2020/12/14 00:32:07;;;;;;;7.78;6.90;;;;;;;14.40;54.59;100544.50;5003891;27;127177;-59
2020/12/14 00:34:33;;;;;;;8.93;7.57;;;;;;;14.43;54.10;100548.53;5012123;27;127509;-57
2020/12/14 00:36:59;;;;;;;8.02;6.90;;;;;;;14.44;54.24;100542.81;5005810;27;119742;-59
2020/12/14 00:39:25;;;;;;;9.07;7.55;;;;;;;14.45;54.56;100549.03;5023151;27;128263;-57
2020/12/14 00:41:51;;;;;;;7.90;6.95;;;;;;;14.46;54.22;100542.50;5024234;27;118183;-57
2020/12/14 00:44:17;;;;;;;8.30;7.03;;;;;;;14.47;54.30;100539.53;5014284;27;121999;-57
2020/12/14 00:46:45;;;;;;;8.70;7.10;;;;;;;14.49;54.35;100540.06;4984756;27;119724;-58
2020/12/14 00:49:11;;;;;;;8.35;7.30;;;;;;;14.49;54.42;100540.06;5008940;27;98868;-57
2020/12/14 00:51:37;;;;;;;8.30;7.32;;;;;;;14.50;54.51;100540.88;5023585;27;115343;-57
2020/12/14 00:54:03;;;;;;;8.77;7.22;;;;;;;14.52;54.17;100544.09;5003569;27;127098;-57
2020/12/14 00:56:29;;;;;;;7.60;6.80;;;;;;;14.52;54.12;100546.81;5004813;27;98008;-57
2020/12/14 00:58:55;;;;;;;8.30;7.20;;;;;;;14.53;54.11;100553.84;5002614;27;119146;-58
2020/12/14 01:01:21;;;;;;;8.00;7.20;;;;;;;14.53;54.17;100553.03;5002609;27;128739;-58
2020/12/14 01:03:48;;;;;;;7.45;6.63;;;;;;;14.54;54.29;100555.50;5005570;27;119323;-59
2020/12/14 01:06:14;;;;;;;8.85;7.38;;;;;;;14.54;54.30;100554.66;5012961;27;117997;-59
2020/12/14 01:08:41;;;;;;;8.90;7.28;;;;;;;14.51;54.35;100545.22;5002971;27;110871;-57
2020/12/14 01:11:07;;;;;;;8.27;6.85;;;;;;;14.46;54.50;100553.38;5003716;27;99142;-58
2020/12/14 01:13:33;;;;;;;8.43;6.75;;;;;;;14.46;54.61;100553.38;5003597;27;105954;-57
2020/12/14 01:15:59;;;;;;;8.55;7.05;;;;;;;14.43;54.33;100559.41;5004931;27;97798;-57
2020/12/14 01:18:25;;;;;;;8.75;7.50;;;;;;;14.38;54.29;100562.97;5004722;27;98383;-59
2020/12/14 01:20:51;;;;;;;9.05;7.15;;;;;;;14.35;54.66;100566.25;5023028;27;127564;-59
2020/12/14 01:23:18;;;;;;;8.32;7.30;;;;;;;14.33;54.49;100568.44;5022648;27;127540;-57
2020/12/14 01:25:44;;;;;;;9.52;7.22;;;;;;;14.31;54.87;100573.38;5024060;27;118872;-57
2020/12/14 01:28:11;;;;;;;7.40;6.68;;;;;;;14.28;54.84;100573.94;5022545;27;129101;-57
2020/12/14 01:30:37;;;;;;;9.05;7.45;;;;;;;14.25;54.35;100571.78;5024004;27;98598;-58
2020/12/14 01:33:03;;;;;;;8.00;7.20;;;;;;;14.20;54.80;100578.09;4986147;27;98404;-57
2020/12/14 01:35:29;;;;;;;9.05;7.50;;;;;;;14.20;54.63;100578.09;5003383;27;117141;-57
2020/12/14 01:37:55;;;;;;;8.80;7.13;;;;;;;14.17;54.47;100581.38;5001227;27;127987;-57
2020/12/14 01:40:22;;;;;;;8.15;6.80;;;;;;;14.16;54.76;100579.75;5004281;27;98269;-57
2020/12/14 01:42:51;;;;;;;7.78;6.97;;;;;;;14.12;54.56;100575.22;5003427;27;111034;-58
2020/12/14 01:45:17;;;;;;;8.15;7.10;;;;;;;14.09;54.35;100576.59;5004112;27;97838;-57
2020/12/14 01:47:44;;;;;;;8.38;6.72;;;;;;;14.09;54.71;100584.72;5003014;27;99801;-58
2020/12/14 01:50:12;;;;;;;7.80;7.00;;;;;;;14.05;54.42;100577.44;5002728;27;118136;-58
2020/12/14 01:52:45;;;;;;;8.68;7.00;;;;;;;14.02;54.33;100588.88;5001550;27;98563;-58
2020/12/14 01:55:17;;;;;;;7.97;6.65;;;;;;;13.98;54.25;100583.22;5003584;27;97923;-58
2020/12/14 01:57:43;;;;;;;;;;;;;;;13.90;54.42;100586.53;5000836;27;117112;-57
2020/12/14 02:00:10;;;;;;;7.60;6.80;;;;;;;13.93;54.33;100581.34;5002548;27;128833;-56
2020/12/14 02:02:36;;;;;;;7.50;6.78;;;;;;;13.93;54.36;100580.56;5017767;27;117907;-58
2020/12/14 02:05:04;;;;;;;7.82;7.03;;;;;;;13.97;54.08;100579.69;5023737;27;97899;-57
2020/12/14 02:07:30;;;;;;;8.40;6.85;;;;;;;13.98;53.98;100578.59;5024131;27;108726;-58
2020/12/14 02:09:56;;;;;;;7.88;6.80;;;;;;;14.00;53.69;100581.84;5010234;27;98927;-57
2020/12/14 02:12:23;;;;;;;8.00;6.72;;;;;;;14.00;53.83;100583.75;5002481;27;106884;-58
2020/12/14 02:14:54;;;;;;;7.72;6.80;;;;;;;13.98;53.65;100584.00;5003553;27;97704;-57
2020/12/14 02:17:21;;;;;;;8.00;6.72;;;;;;;13.98;53.53;100580.50;5001742;27;98280;-57
2020/12/14 02:19:47;;;;;;;8.02;6.63;;;;;;;13.99;53.23;100574.00;5001390;27;98247;-57
2020/12/14 02:22:17;;;;;;;8.18;6.90;;;;;;;13.95;53.35;100571.06;5002694;27;128286;-58
2020/12/14 02:24:54;;;;;;;7.63;6.47;;;;;;;13.95;52.95;100571.06;5011867;27;100420;-58
2020/12/14 02:27:21;;;;;;;9.15;6.93;;;;;;;13.94;53.21;100571.31;5021329;27;99182;-59
2020/12/14 02:29:47;;;;;;;6.90;6.13;;;;;;;13.91;53.13;100572.72;4995168;27;104336;-60
2020/12/14 02:32:17;;;;;;;8.07;6.75;;;;;;;13.89;53.01;100564.06;5023488;27;97839;-57
2020/12/14 02:34:43;;;;;;;8.07;6.78;;;;;;;13.88;53.03;100570.59;5017400;27;97792;-58
2020/12/14 02:37:10;;;;;;;8.40;6.75;;;;;;;13.89;52.98;100563.25;5002606;27;98314;-57
2020/12/14 02:39:37;;;;;;;7.85;6.20;;;;;;;13.89;52.88;100558.63;5002993;27;111276;-58
2020/12/14 02:42:11;;;;;;;7.32;6.43;;;;;;;13.92;52.60;100558.06;5002038;27;118719;-57
2020/12/14 02:44:37;;;;;;;7.47;6.45;;;;;;;13.92;52.90;100560.78;5002466;27;108941;-58
2020/12/14 02:47:03;;;;;;;7.32;6.32;;;;;;;13.95;52.44;100567.50;5002480;27;116369;-58
2020/12/14 02:49:30;;;;;;;7.45;6.18;;;;;;;13.94;52.52;100552.34;5009800;27;99438;-57
2020/12/14 02:51:56;;;;;;;7.75;6.38;;;;;;;13.91;52.59;100545.63;5023449;27;98496;-58
2020/12/14 02:54:22;;;;;;;7.60;6.25;;;;;;;13.89;52.70;100539.69;5015104;27;98000;-59
2020/12/14 02:56:48;;;;;;;7.25;5.82;;;;;;;13.88;52.17;100537.25;5004086;27;108784;-58
2020/12/14 02:59:15;;;;;;;7.53;6.40;;;;;;;13.88;52.67;100539.97;5021804;27;127905;-59
2020/12/14 03:01:41;;;;;;;8.25;6.57;;;;;;;13.82;52.70;100533.78;5021180;27;97831;-57
2020/12/14 03:04:07;;;;;;;7.82;6.50;;;;;;;13.84;52.62;100549.78;5017957;27;97858;-58
2020/12/14 03:06:33;;;;;;;10.10;7.07;;;;;;;13.82;53.02;100533.78;5002970;27;97844;-57
2020/12/14 03:08:59;;;;;;;8.70;6.95;;;;;;;13.79;52.75;100523.50;5001476;27;127878;-57
2020/12/14 03:11:26;;;;;;;8.32;6.93;;;;;;;13.80;52.98;100530.56;5001847;27;97974;-58
2020/12/14 03:13:52;;;;;;;8.63;7.22;;;;;;;13.78;52.78;100529.22;5002471;27;98093;-58
2020/12/14 03:16:18;;;;;;;8.20;7.10;;;;;;;13.78;52.85;100542.78;5001293;27;121195;-57
2020/12/14 03:18:44;;;;;;;8.70;6.97;;;;;;;13.74;52.87;100543.34;5002553;27;128344;-58
2020/12/14 03:21:10;;;;;;;9.13;7.38;;;;;;;13.73;52.97;100541.72;5001324;27;126119;-58
2020/12/14 03:23:37;;;;;;;9.00;7.15;;;;;;;13.72;53.08;100556.38;4999694;27;117269;-58
2020/12/14 03:26:03;;;;;;;9.73;7.70;;;;;;;13.70;53.26;100561.25;5002054;27;128485;-57
2020/12/14 03:28:29;;;;;;;9.68;7.57;;;;;;;13.68;53.19;100563.47;4999518;27;115507;-58
2020/12/14 03:30:55;;;;;;;9.02;7.60;;;;;;;13.70;53.37;100571.28;5001927;27;127442;-58
2020/12/14 03:33:21;;;;;;;9.73;7.97;;;;;;;13.70;53.36;100563.97;4986527;27;115883;-57
2020/12/14 03:35:47;;;;;;;10.70;8.65;;;;;;;13.70;52.97;100565.88;5025284;27;98432;-58
2020/12/14 03:38:16;;;;;;;10.57;8.63;;;;;;;13.68;53.21;100578.91;5025573;27;98202;-57
2020/12/14 03:40:43;;;;;;;10.05;8.65;;;;;;;13.71;53.43;100567.47;5023512;27;98101;-59
2020/12/14 03:43:09;;;;;;;11.57;8.80;;;;;;;13.71;53.37;100573.69;5024021;27;112203;-57
2020/12/14 03:45:35;;;;;;;10.85;8.73;;;;;;;13.73;53.20;100568.81;5025689;27;98225;-57
2020/12/14 03:48:01;;;;;;;10.48;8.45;;;;;;;13.72;53.28;100577.25;5024768;27;127860;-58
2020/12/14 03:50:27;;;;;;;12.65;9.70;;;;;;;13.76;53.18;100570.16;5025484;27;126478;-57
2020/12/14 03:52:53;;;;;;;10.60;8.65;;;;;;;13.78;53.61;100567.97;5014389;27;119451;-57
2020/12/14 03:55:19;;;;;;;11.73;9.48;;;;;;;13.78;53.32;100565.25;5004714;27;125885;-57
2020/12/14 03:57:45;;;;;;;11.90;9.38;;;;;;;13.79;53.35;100568.75;5005293;27;128459;-57
2020/12/14 04:00:11;;;;;;;12.90;10.25;;;;;;;13.80;53.69;100565.00;5004361;27;127794;-57
2020/12/14 04:02:37;;;;;;;13.73;9.98;;;;;;;13.81;53.51;100561.19;5005725;27;97839;-58
2020/12/14 04:05:04;;;;;;;12.38;9.48;;;;;;;13.84;53.30;100568.75;5015724;27;106181;-58
2020/12/14 04:07:30;;;;;;;13.07;10.35;;;;;;;13.82;53.78;100571.72;5026041;27;99074;-57
2020/12/14 04:09:56;;;;;;;12.90;9.93;;;;;;;13.84;53.64;100563.31;5012569;27;98026;-58
2020/12/14 04:12:22;;;;;;;12.48;10.35;;;;;;;13.84;53.14;100566.84;5004920;27;117566;-58
2020/12/14 04:14:48;;;;;;;12.80;10.57;;;;;;;13.85;53.36;100559.50;5005141;27;128087;-57
2020/12/14 04:17:14;;;;;;;12.48;10.20;;;;;;;13.87;53.69;100565.44;5004420;27;126447;-59
2020/12/14 04:19:40;;;;;;;12.38;10.48;;;;;;;13.85;53.35;100573.84;5006044;27;98308;-57
2020/12/14 04:22:09;;;;;;;13.73;10.77;;;;;;;13.86;53.43;100566.53;5019975;27;109871;-58
2020/12/14 04:24:35;;;;;;;14.00;10.63;;;;;;;13.87;53.27;100568.97;5012900;27;99346;-57
2020/12/14 04:27:03;;;;;;;13.90;10.98;;;;;;;13.88;53.15;100570.59;5004411;27;99987;-59
2020/12/14 04:29:29;;;;;;;13.40;10.77;;;;;;;13.88;53.77;100586.84;5012971;27;98111;-57
2020/12/14 04:31:55;;;;;;;14.07;10.93;;;;;;;13.87;53.39;100592.53;5025825;27;97926;-57
2020/12/14 04:34:21;;;;;;;14.48;11.23;;;;;;;13.87;54.00;100587.09;5016031;27;126838;-57
2020/12/14 04:36:48;;;;;;;13.75;11.45;;;;;;;13.88;53.31;100592.25;5005411;27;98682;-58
2020/12/14 04:39:14;;;;;;;15.88;11.30;;;;;;;13.85;53.64;100590.13;5004322;27;97907;-57
2020/12/14 04:41:40;;;;;;;13.40;10.65;;;;;;;13.86;53.49;100580.88;5002114;27;113790;-57
2020/12/14 04:44:10;;;;;;;13.27;11.30;;;;;;;13.85;53.26;100581.97;4985890;27;98808;-58
2020/12/14 04:46:36;;;;;;;14.80;11.30;;;;;;;13.85;53.70;100573.84;5001885;27;111357;-58
2020/12/14 04:49:07;;;;;;;14.38;11.20;;;;;;;13.85;53.68;100567.63;5015184;27;98041;-57
2020/12/14 04:51:35;;;;;;;14.95;11.60;;;;;;;13.82;53.66;100566.28;5022920;27;98093;-58
2020/12/14 04:54:02;;;;;;;14.35;11.50;;;;;;;13.81;53.32;100561.19;5016150;27;98252;-57
2020/12/14 04:56:28;;;;;;;15.18;11.45;;;;;;;13.79;53.50;100564.16;5001980;27;108806;-58
2020/12/14 04:58:56;;;;;;;15.43;12.35;;;;;;;13.75;53.58;100563.94;5002157;27;97809;-57
2020/12/14 05:01:22;;;;;;;14.60;11.40;;;;;;;13.74;53.56;100567.72;5004693;27;97794;-57
2020/12/14 05:03:48;;;;;;;15.02;12.32;;;;;;;13.75;53.53;100568.53;5006908;27;119099;-57
2020/12/14 05:06:15;;;;;;;15.23;12.15;;;;;;;13.72;53.47;100566.41;5023972;27;98068;-59
2020/12/14 05:08:41;;;;;;;14.82;11.30;;;;;;;13.70;53.57;100574.81;5022652;27;118534;-58
2020/12/14 05:11:09;;;;;;;16.05;12.05;;;;;;;13.69;53.39;100573.19;5022717;27;98182;-57
2020/12/14 05:13:35;;;;;;;14.48;11.60;;;;;;;13.67;53.85;100578.06;5022665;27;105834;-58
2020/12/14 05:16:01;;;;;;;15.20;11.48;;;;;;;13.67;53.46;100578.06;5021924;27;121918;-58
2020/12/14 05:18:27;;;;;;;14.77;11.77;;;;;;;13.65;53.53;100574.88;5005778;27;98096;-58
2020/12/14 05:21:03;;;;;;;15.52;11.80;;;;;;;13.60;53.48;100582.25;5023162;27;98237;-58
2020/12/14 05:23:30;;;;;;;15.20;12.10;;;;;;;13.61;53.45;100575.72;5023291;27;99517;-58
2020/12/14 05:26:14;;;;;;;13.50;11.25;;;;;;;13.56;53.48;100576.56;5024132;27;98081;-59
2020/12/14 05:28:40;;;;;;;15.40;11.90;;;;;;;13.59;53.35;100578.69;5022353;27;127309;-58
2020/12/14 05:31:07;;;;;;;14.50;11.13;;;;;;;13.56;53.35;100579.28;5020487;27;97934;-58
2020/12/14 05:33:33;;;;;;;14.40;11.57;;;;;;;13.56;53.30;100581.16;5019114;27;119206;-57
2020/12/14 05:35:59;;;;;;;14.57;11.93;;;;;;;13.56;53.31;100575.75;5002724;27;122112;-57
2020/12/14 05:38:32;;;;;;;14.48;11.20;;;;;;;13.54;53.32;100578.75;5002250;27;128331;-58
2020/12/14 05:41:03;;;;;;;15.00;11.77;;;;;;;13.50;53.23;100581.22;5002037;27;98022;-57
2020/12/14 05:43:31;;;;;;;13.75;11.20;;;;;;;13.53;53.14;100579.84;5006382;27;98356;-58
2020/12/14 05:46:12;;;;;;;14.00;11.20;;;;;;;13.55;52.99;100579.56;4985029;27;115983;-58
2020/12/14 05:48:38;;;;;;;14.25;10.98;;;;;;;13.54;53.06;100567.13;4956169;27;110144;-58
2020/12/14 05:51:06;;;;;;;14.00;10.93;;;;;;;13.54;53.20;100564.41;5004185;27;97743;-57
2020/12/14 05:53:34;;;;;;;15.63;11.43;;;;;;;13.53;53.00;100571.72;5000064;27;118869;-57
2020/12/14 05:56:01;;;;;;;14.40;11.65;;;;;;;13.53;52.85;100571.72;5002477;27;114332;-57
2020/12/14 05:58:31;;;;;;;13.98;11.10;;;;;;;13.48;52.93;100567.16;5021105;27;98056;-57
2020/12/14 06:00:58;;;;;;;15.15;11.48;;;;;;;13.51;52.85;100563.88;5023629;27;97752;-57
2020/12/14 06:03:25;;;;;;;14.52;11.57;;;;;;;13.50;52.73;100564.16;5023498;27;102004;-57
2020/12/14 06:06:04;;;;;;;16.23;11.63;;;;;;;13.46;53.05;100560.41;5022867;27;98428;-57
2020/12/14 06:08:49;;;;;;;13.95;11.50;;;;;;;13.45;52.93;100565.03;5023532;27;106506;-57
2020/12/14 06:11:21;;;;;;;14.88;11.30;;;;;;;13.49;52.66;100570.69;5022388;27;97763;-58
2020/12/14 06:13:55;;;;;;;16.65;12.00;;;;;;;13.47;52.78;100575.56;5023377;27;98533;-57
2020/12/14 06:16:28;;;;;;;15.85;11.48;;;;;;;13.47;52.79;100573.66;5023167;27;98805;-58
2020/12/14 06:18:56;;;;;;;14.80;11.10;;;;;;;13.48;52.76;100582.59;5023169;27;103500;-58
2020/12/14 06:21:46;;;;;;;15.38;11.57;;;;;;;13.42;52.71;100573.69;5023976;27;97786;-58
2020/12/14 06:24:21;;;;;;;13.93;10.88;;;;;;;13.45;52.68;100572.34;5019695;27;98845;-58
2020/12/14 06:26:47;;;;;;;13.98;11.05;;;;;;;13.48;52.76;100574.50;5000622;27;121868;-58
2020/12/14 06:29:33;;;;;;;16.08;11.43;;;;;;;13.45;52.63;100577.75;5000267;27;117614;-58
2020/12/14 06:31:59;;;;;;;13.88;11.13;;;;;;;13.47;52.67;100578.25;5003597;27;97705;-57
2020/12/14 06:34:45;;;;;;;13.45;10.95;;;;;;;13.44;52.71;100584.25;5001901;27;127442;-57
2020/12/14 06:37:11;;;;;;;13.57;11.15;;;;;;;13.47;52.82;100584.47;5001926;27;128890;-58
2020/12/14 06:39:40;;;;;;;17.08;11.90;;;;;;;13.46;52.75;100587.47;4964174;27;128800;-57
2020/12/14 06:42:09;;;;;;;13.65;11.18;;;;;;;13.43;52.69;100579.91;5000848;27;97806;-57
2020/12/14 06:44:44;;;;;;;14.50;10.88;;;;;;;13.40;52.65;100584.03;4999658;27;98512;-58
2020/12/14 06:47:14;;;;;;;15.07;10.95;;;;;;;13.40;52.78;100584.03;5000581;27;98898;-58
2020/12/14 06:49:40;;;;;;;13.43;10.93;;;;;;;13.43;52.56;100582.63;5000445;27;98098;-57
2020/12/14 06:52:06;;;;;;;15.05;11.23;;;;;;;13.39;52.72;100578.88;5017354;27;97865;-58
2020/12/14 06:54:47;;;;;;;14.82;11.45;;;;;;;13.36;52.57;100579.44;5012259;27;127156;-58
2020/12/14 06:57:15;;;;;;;13.20;11.13;;;;;;;13.34;52.53;100582.44;4982538;27;127573;-58
2020/12/14 06:59:49;;;;;;;14.13;11.45;;;;;;;13.35;52.45;100586.75;5000125;27;97711;-58
2020/12/14 07:02:15;;;;;;;14.38;11.85;;;;;;;13.34;52.63;100578.91;4997874;27;104553;-58
2020/12/14 07:04:42;;;;;;;14.30;10.82;;;;;;;13.30;52.48;100583.28;4999169;27;126766;-58
2020/12/14 07:07:11;;;;;;;14.23;11.05;;;;;;;13.32;52.40;100576.47;5000777;27;98432;-58
2020/12/14 07:09:40;;;;;;;15.13;11.43;;;;;;;13.26;52.34;100574.91;5003751;27;98057;-58
2020/12/14 07:12:09;;;;;;;13.15;10.93;;;;;;;13.27;52.38;100584.66;4985310;27;102606;-59
2020/12/14 07:14:52;;;;;;;14.52;12.00;;;;;;;13.27;52.25;100579.22;5002169;27;100047;-57
2020/12/14 07:17:27;;;;;;;;;;;;;;;13.17;52.38;100580.09;5003544;27;99094;-58
2020/12/14 07:19:55;;;;;;;13.90;11.45;;;;;;;13.20;52.34;100584.97;5020341;27;115806;-57
2020/12/14 07:22:22;;;;;;;15.45;11.43;;;;;;;13.26;52.31;100588.44;5023782;27;110666;-58
2020/12/14 07:25:07;;;;;;;14.40;11.40;;;;;;;13.22;52.31;100584.66;5022336;27;116946;-57
2020/12/14 07:27:34;;;;;;;13.98;10.98;;;;;;;13.29;52.22;100587.09;5023101;27;128257;-57
2020/12/14 07:30:08;;;;;;;13.32;11.40;;;;;;;13.29;52.28;100595.22;5022715;27;128389;-58
2020/12/14 07:32:34;;;;;;;14.23;11.15;;;;;;;13.34;52.23;100587.03;5021371;27;105609;-57
2020/12/14 07:35:00;;;;;;;14.35;11.15;;;;;;;13.35;52.24;100585.94;5023232;27;98502;-58
2020/12/14 07:37:26;;;;;;;13.25;10.82;;;;;;;13.36;52.00;100592.97;5024377;27;98622;-58
2020/12/14 07:39:52;;;;;;;13.80;11.10;;;;;;;13.40;51.95;100588.59;5022010;27;127095;-57
2020/12/14 07:42:32;;;;;;;14.73;11.32;;;;;;;13.41;52.08;100587.53;5022925;27;115825;-57
2020/12/14 07:45:20;;;;;;;13.20;10.98;;;;;;;13.45;52.15;100588.59;5021443;27;114495;-58
2020/12/14 07:47:50;;;;;;;14.07;11.07;;;;;;;13.50;51.90;100573.09;5022314;27;99209;-58
2020/12/14 07:50:19;;;;;;;13.40;10.90;;;;;;;13.54;51.98;100577.94;5022824;27;117656;-57
2020/12/14 07:52:49;;;;;;;13.30;10.65;;;;;;;13.62;52.02;100577.31;5023346;27;98000;-57
2020/12/14 07:55:16;;;;;;;13.43;10.73;;;;;;;13.65;52.00;100576.78;5023746;27;98495;-58
2020/12/14 07:57:44;;;;;;;13.38;11.02;;;;;;;13.70;51.79;100569.38;5020586;27;118513;-58
2020/12/14 08:00:29;;;;;;;11.73;10.45;;;;;;;13.79;51.89;100582.31;5021693;27;112720;-58
2020/12/14 08:03:03;;;;;;;12.75;10.60;;;;;;;13.86;51.87;100577.38;5022355;27;108621;-58
2020/12/14 08:05:29;;;;;;;11.90;10.55;;;;;;;13.96;51.84;100582.69;5022848;27;98293;-59
2020/12/14 08:08:04;;;;;;;12.73;10.60;;;;;;;14.04;51.86;100586.69;5020502;27;124279;-57
2020/12/14 08:10:35;;;;;;;13.15;11.40;;;;;;;14.11;51.90;100587.97;5002362;27;99074;-57
2020/12/14 08:13:11;;;;;;;13.82;11.43;;;;;;;14.16;51.97;100581.66;5009049;27;97679;-57
2020/12/14 08:15:38;;;;;;;14.60;12.05;;;;;;;14.21;51.91;100574.28;5004222;27;98266;-58
2020/12/14 08:18:08;;;;;;;13.65;11.32;;;;;;;14.25;52.23;100571.78;5019429;27;118099;-58
2020/12/14 08:20:36;;;;;;;13.00;11.20;;;;;;;14.26;52.16;100565.28;5022039;27;116849;-58
2020/12/14 08:23:16;;;;;;;14.18;11.98;;;;;;;14.28;52.47;100565.00;5022573;27;97971;-58
2020/12/14 08:25:47;;;;;;;14.75;12.20;;;;;;;14.32;52.53;100560.63;5022917;27;107618;-57
2020/12/14 08:28:13;;;;;;;15.50;12.38;;;;;;;14.36;52.63;100562.44;5015559;27;99185;-57
2020/12/14 08:30:40;;;;;;;13.07;11.35;;;;;;;14.44;52.87;100569.13;5001266;27;127451;-57
2020/12/14 08:33:21;;;;;;;12.82;11.00;;;;;;;14.45;52.74;100574.25;5001882;27;117688;-58
2020/12/14 08:35:52;;;;;;;13.95;11.10;;;;;;;14.53;53.04;100574.75;5003201;27;98574;-57
2020/12/14 08:38:24;;;;;;;12.52;11.23;;;;;;;14.60;52.78;100569.78;5001612;27;99464;-58
2020/12/14 08:41:01;;;;;;;12.85;10.98;;;;;;;14.63;52.80;100572.72;5008556;27;98752;-58
2020/12/14 08:43:28;;;;;;;12.18;10.93;;;;;;;14.72;53.33;100579.09;5023080;27;97736;-57
2020/12/14 08:46:06;;;;;;;14.25;11.38;;;;;;;14.76;53.31;100583.94;5022437;27;106837;-57
2020/12/14 08:48:53;;;;;;;12.27;10.95;;;;;;;14.82;53.38;100594.44;5021940;27;99055;-58
2020/12/14 08:51:23;;;;;;;12.73;11.38;;;;;;;14.90;53.05;100593.78;5020123;27;98508;-58
2020/12/14 08:53:51;;;;;;;11.57;10.13;;;;;;;14.95;53.07;100588.28;5022266;27;103492;-57
2020/12/14 08:56:33;;;;;;;11.57;10.32;;;;;;;15.02;53.35;100584.41;5023122;27;99140;-58
2020/12/14 08:59:00;;;;;;;12.43;10.80;;;;;;;15.11;53.56;100594.28;5022599;27;98291;-57
2020/12/14 09:01:31;;;;;;;11.93;10.68;;;;;;;15.22;53.02;100595.75;5003020;27;98605;-57
2020/12/14 09:04:03;;;;;;;12.93;10.45;;;;;;;15.32;53.50;100583.09;5001542;27;103980;-58
2020/12/14 09:06:34;;;;;;;12.00;10.70;;;;;;;15.38;53.32;100584.66;4999567;27;105933;-59
2020/12/14 09:09:13;;;;;;;12.18;10.88;;;;;;;15.36;53.77;100584.94;5011205;27;98523;-57
2020/12/14 09:11:41;;;;;;;13.40;10.82;;;;;;;15.35;54.05;100591.47;5020873;27;103840;-59
2020/12/14 09:14:08;;;;;;;16.75;13.43;;;;;;;15.36;54.23;100590.38;5023046;27;97672;-58
2020/12/14 09:16:35;;;;;;;23.40;18.80;;;;;;;15.39;54.35;100594.41;5020015;27;119550;-58
2020/12/14 09:19:01;;;;;;;30.60;22.83;;;;;;;15.39;54.78;100592.50;5021432;27;108670;-59
2020/12/14 09:21:27;;;;;;;29.63;23.88;;;;;;;15.45;54.49;100585.88;5021553;27;109935;-57
2020/12/14 09:24:13;;;;;;;31.10;24.63;;;;;;;15.53;54.40;100583.59;5020864;27;118605;-59
2020/12/14 09:26:40;;;;;;;28.45;22.00;;;;;;;15.60;54.36;100576.69;5021076;27;99091;-59
2020/12/14 09:29:07;;;;;;;26.92;21.17;;;;;;;15.74;54.39;100570.50;5021612;27;98542;-58
2020/12/14 09:31:33;;;;;;;23.92;19.63;;;;;;;15.85;54.62;100567.28;5021191;27;98413;-57
2020/12/14 09:33:59;;;;;;;23.17;18.58;;;;;;;15.94;54.64;100570.13;5022365;27;97737;-58
2020/12/14 09:36:25;;;;;;;22.23;18.80;;;;;;;16.05;54.40;100568.81;5020536;27;128085;-59
2020/12/14 09:38:54;;;;;;;23.25;20.13;;;;;;;16.15;54.55;100562.38;5021186;27;98482;-57
2020/12/14 09:41:22;;;;;;;24.38;20.67;;;;;;;16.21;54.68;100550.28;5019566;27;98171;-58
2020/12/14 09:43:48;;;;;;;24.40;21.15;;;;;;;16.23;54.58;100552.69;5020889;27;97892;-59
2020/12/14 09:46:14;;;;;;;25.98;22.02;;;;;;;16.24;54.94;100562.50;5022349;27;98174;-57
2020/12/14 09:48:40;;;;;;;24.42;21.38;;;;;;;16.26;55.42;100562.97;5020098;27;126780;-58
2020/12/14 09:51:07;;;;;;;24.65;21.02;;;;;;;16.28;55.61;100567.03;5014253;27;128280;-58
2020/12/14 09:53:33;;;;;;;24.63;20.70;;;;;;;16.31;55.85;100577.31;5001408;27;98590;-58
2020/12/14 09:55:59;;;;;;;22.58;19.95;;;;;;;16.33;56.05;100564.19;4999922;27;116475;-59
2020/12/14 09:58:25;;;;;;;22.17;19.77;;;;;;;16.41;55.86;100570.84;5001270;27;98440;-57
2020/12/14 10:00:51;;;;;;;20.23;18.02;;;;;;;16.41;56.37;100562.69;5001300;27;98223;-58
2020/12/14 10:03:17;;;;;;;21.15;17.83;;;;;;;16.43;56.54;100568.63;5000658;27;115706;-58
2020/12/14 10:05:47;;;;;;;19.85;17.50;;;;;;;16.45;56.56;100558.22;5000746;27;104288;-58
2020/12/14 10:08:15;;;;;;;18.02;16.13;;;;;;;16.48;56.51;100560.34;4999366;27;98311;-57
2020/12/14 10:10:41;;;;;;;17.15;15.00;;;;;;;16.52;56.81;100568.72;5001116;27;98044;-58
2020/12/14 10:13:07;;;;;;;16.63;14.60;;;;;;;16.60;56.62;100563.34;5018598;27;97780;-58
2020/12/14 10:15:33;;;;;;;16.63;14.35;;;;;;;16.63;56.40;100559.22;5020573;27;98887;-58
2020/12/14 10:17:59;;;;;;;15.85;14.15;;;;;;;16.67;56.61;100557.50;5021046;27;98902;-57
2020/12/14 10:20:26;;;;;;;15.68;13.38;;;;;;;16.69;57.04;100558.78;5019914;27;127502;-59
2020/12/14 10:22:52;;;;;;;14.68;12.70;;;;;;;16.73;57.24;100569.91;5008765;27;99084;-59
2020/12/14 10:25:18;;;;;;;15.63;13.45;;;;;;;16.77;56.69;100559.22;5000723;27;98053;-58
2020/12/14 10:27:44;;;;;;;16.52;14.55;;;;;;;16.82;56.94;100559.09;5000299;27;98362;-58
2020/12/14 10:30:10;;;;;;;17.05;14.80;;;;;;;16.86;56.96;100551.94;5005588;27;103223;-57
2020/12/14 10:32:36;;;;;;;17.77;14.68;;;;;;;16.92;56.88;100556.16;5012478;27;119745;-57
2020/12/14 10:35:02;;;;;;;16.85;14.30;;;;;;;16.98;56.70;100556.81;4998652;27;128193;-59
2020/12/14 10:37:28;;;;;;;15.63;13.27;;;;;;;16.97;56.86;100556.03;4998614;27;128368;-57
2020/12/14 10:39:54;;;;;;;15.63;13.30;;;;;;;17.02;57.29;100558.66;4999320;27;97709;-57
2020/12/14 10:42:21;;;;;;;14.10;12.35;;;;;;;17.09;56.96;100564.44;5000868;27;117207;-58
2020/12/14 10:44:47;;;;;;;13.93;12.38;;;;;;;17.13;56.82;100567.38;5004329;27;127042;-57
2020/12/14 10:47:13;;;;;;;12.73;11.07;;;;;;;17.13;57.09;100560.03;5023450;27;128997;-57
2020/12/14 10:49:39;;;;;;;12.25;10.50;;;;;;;17.17;57.12;100550.13;5022292;27;126129;-59
2020/12/14 10:52:05;;;;;;;11.85;10.20;;;;;;;17.19;57.17;100557.97;5023157;27;115434;-57
2020/12/14 10:54:31;;;;;;;10.23;9.15;;;;;;;17.16;57.54;100564.81;5006818;27;98532;-58
2020/12/14 10:56:57;;;;;;;10.13;9.05;;;;;;;17.16;57.32;100558.59;5002517;27;128086;-57
2020/12/14 10:59:23;;;;;;;9.38;8.45;;;;;;;17.16;57.60;100561.31;5001921;27;98467;-57
2020/12/14 11:01:51;;;;;;;10.18;8.68;;;;;;;17.11;58.01;100564.16;5002433;27;117923;-57
2020/12/14 11:04:17;;;;;;;9.15;8.15;;;;;;;17.03;58.21;100554.81;5013376;27;98387;-58
2020/12/14 11:06:43;;;;;;;9.27;7.82;;;;;;;17.00;58.35;100549.97;5005332;27;98709;-57
2020/12/14 11:09:09;;;;;;;8.90;7.35;;;;;;;16.97;58.25;100544.34;5002788;27;127366;-57
2020/12/14 11:11:36;;;;;;;7.88;7.07;;;;;;;16.90;58.38;100542.06;5003076;27;102736;-58
2020/12/14 11:14:02;;;;;;;8.43;6.88;;;;;;;16.83;58.66;100549.84;5001489;27;127198;-59
2020/12/14 11:16:30;;;;;;;7.75;6.75;;;;;;;16.82;58.56;100545.47;5018091;27;127202;-59